Decoded Metar for LEAL (ALICANTE in SPAIN) (IATA:ALC) | Meteo·Mobile Aviation Weather
aviador You're here:

LEAL Decoded Metar

ALICANTE in SPAIN
Report Time2019-05-25 23:30:00
UTC Time2019-05-25 23:37:58
Flight Rules vfr VFR
Wind280° at 04 kt
W.Decomp.*RWY 28: 4.0 kt HW 0.1 kt RCW
Visibility9999 m
Phenomena:N/A
Clouds:N/A
Expected CloudBase > 800 ft AGL from Temp-Dew spread
CeilingNone
Temp15°C (ISA 0)
Dew Point13°C (88% RH)
AAT14.5°C
QNH1018 hPa
Density Alt157 ft
Elevation102 ft
Report Wrong Elevation
Raw Report
METAR LEAL 252330Z 28004KT CAVOK 15/13 Q1018 NOSIG=

Extra information for LEAL:More info

Metar Taf Metar & Taf Last 4 Metars F.Rules Stats Wind Profile Meteogram Temp Stats Airport Information Weather charts Add Link Nearby VenuesMetar ALERT Operation Metar Decoded Social comments